sensor_id;sensor_type;location;lat;lon;timestamp;P1;durP1;ratioP1;P2;durP2;ratioP2
46439;SDS011;32138;50.966;6.968;2024-01-06T00:00:35;5.68;;;3.40;;
46439;SDS011;32138;50.966;6.968;2024-01-06T00:02:06;5.68;;;3.10;;
46439;SDS011;32138;50.966;6.968;2024-01-06T00:03:36;4.60;;;3.33;;
46439;SDS011;32138;50.966;6.968;2024-01-06T00:05:07;6.55;;;3.42;;
46439;SDS011;32138;50.966;6.968;2024-01-06T00:06:38;5.03;;;3.22;;
46439;SDS011;32138;50.966;6.968;2024-01-06T00:08:09;5.88;;;3.83;;
46439;SDS011;32138;50.966;6.968;2024-01-06T00:09:40;5.25;;;3.70;;
46439;SDS011;32138;50.966;6.968;2024-01-06T00:11:13;6.35;;;3.85;;
46439;SDS011;32138;50.966;6.968;2024-01-06T00:12:44;4.90;;;3.63;;
46439;SDS011;32138;50.966;6.968;2024-01-06T00:14:15;6.35;;;3.70;;
46439;SDS011;32138;50.966;6.968;2024-01-06T00:15:46;6.82;;;4.07;;
46439;SDS011;32138;50.966;6.968;2024-01-06T00:17:17;6.88;;;3.88;;
46439;SDS011;32138;50.966;6.968;2024-01-06T00:18:48;6.55;;;4.05;;
46439;SDS011;32138;50.966;6.968;2024-01-06T00:20:18;7.60;;;4.15;;
46439;SDS011;32138;50.966;6.968;2024-01-06T00:21:49;6.95;;;4.63;;
46439;SDS011;32138;50.966;6.968;2024-01-06T00:23:20;8.73;;;5.10;;
46439;SDS011;32138;50.966;6.968;2024-01-06T00:24:51;7.63;;;5.18;;
46439;SDS011;32138;50.966;6.968;2024-01-06T00:26:22;7.28;;;5.65;;
46439;SDS011;32138;50.966;6.968;2024-01-06T00:27:53;6.40;;;5.20;;
46439;SDS011;32138;50.966;6.968;2024-01-06T00:29:24;6.18;;;5.38;;
46439;SDS011;32138;50.966;6.968;2024-01-06T00:30:55;8.20;;;4.97;;
46439;SDS011;32138;50.966;6.968;2024-01-06T00:32:26;8.85;;;4.20;;
46439;SDS011;32138;50.966;6.968;2024-01-06T00:33:56;8.77;;;4.93;;
46439;SDS011;32138;50.966;6.968;2024-01-06T00:35:27;10.52;;;4.70;;
46439;SDS011;32138;50.966;6.968;2024-01-06T00:36:58;9.25;;;5.78;;
46439;SDS011;32138;50.966;6.968;2024-01-06T00:38:28;8.95;;;6.15;;
46439;SDS011;32138;50.966;6.968;2024-01-06T00:39:59;9.50;;;6.45;;
46439;SDS011;32138;50.966;6.968;2024-01-06T00:41:30;5.82;;;4.95;;
46439;SDS011;32138;50.966;6.968;2024-01-06T00:43:01;7.38;;;6.13;;
46439;SDS011;32138;50.966;6.968;2024-01-06T00:44:31;9.70;;;5.90;;
46439;SDS011;32138;50.966;6.968;2024-01-06T00:46:05;7.80;;;6.22;;
46439;SDS011;32138;50.966;6.968;2024-01-06T00:47:36;8.10;;;5.65;;
46439;SDS011;32138;50.966;6.968;2024-01-06T00:49:07;8.43;;;6.72;;
46439;SDS011;32138;50.966;6.968;2024-01-06T00:50:37;10.23;;;6.18;;
46439;SDS011;32138;50.966;6.968;2024-01-06T00:52:08;8.38;;;6.13;;
46439;SDS011;32138;50.966;6.968;2024-01-06T00:53:39;10.07;;;7.93;;
46439;SDS011;32138;50.966;6.968;2024-01-06T00:55:10;8.45;;;6.30;;
46439;SDS011;32138;50.966;6.968;2024-01-06T00:56:40;11.73;;;7.25;;
46439;SDS011;32138;50.966;6.968;2024-01-06T00:58:12;7.78;;;6.38;;
46439;SDS011;32138;50.966;6.968;2024-01-06T00:59:43;8.65;;;5.72;;
46439;SDS011;32138;50.966;6.968;2024-01-06T01:01:14;9.05;;;6.35;;
46439;SDS011;32138;50.966;6.968;2024-01-06T01:02:45;7.38;;;6.28;;
46439;SDS011;32138;50.966;6.968;2024-01-06T01:04:15;8.25;;;6.78;;
46439;SDS011;32138;50.966;6.968;2024-01-06T01:05:46;7.65;;;6.28;;
46439;SDS011;32138;50.966;6.968;2024-01-06T01:07:17;10.50;;;6.57;;
46439;SDS011;32138;50.966;6.968;2024-01-06T01:08:48;8.60;;;7.10;;
46439;SDS011;32138;50.966;6.968;2024-01-06T01:10:18;8.75;;;6.72;;
46439;SDS011;32138;50.966;6.968;2024-01-06T01:11:49;9.35;;;7.15;;
46439;SDS011;32138;50.966;6.968;2024-01-06T01:13:20;12.15;;;8.48;;
46439;SDS011;32138;50.966;6.968;2024-01-06T01:14:51;9.30;;;6.13;;
46439;SDS011;32138;50.966;6.968;2024-01-06T01:16:22;8.88;;;6.85;;
46439;SDS011;32138;50.966;6.968;2024-01-06T01:17:53;7.97;;;6.65;;
46439;SDS011;32138;50.966;6.968;2024-01-06T01:19:24;10.05;;;7.28;;
46439;SDS011;32138;50.966;6.968;2024-01-06T01:20:54;8.70;;;6.45;;
46439;SDS011;32138;50.966;6.968;2024-01-06T01:22:25;11.80;;;7.75;;
46439;SDS011;32138;50.966;6.968;2024-01-06T01:23:56;8.45;;;7.03;;
46439;SDS011;32138;50.966;6.968;2024-01-06T01:25:27;8.68;;;6.68;;
46439;SDS011;32138;50.966;6.968;2024-01-06T01:26:58;8.50;;;7.53;;
46439;SDS011;32138;50.966;6.968;2024-01-06T01:28:28;10.10;;;7.55;;
46439;SDS011;32138;50.966;6.968;2024-01-06T01:29:59;9.35;;;8.07;;
46439;SDS011;32138;50.966;6.968;2024-01-06T01:31:30;12.10;;;9.68;;
46439;SDS011;32138;50.966;6.968;2024-01-06T01:33:01;10.95;;;7.80;;
46439;SDS011;32138;50.966;6.968;2024-01-06T01:34:31;13.15;;;8.63;;
46439;SDS011;32138;50.966;6.968;2024-01-06T01:36:02;13.80;;;9.70;;
46439;SDS011;32138;50.966;6.968;2024-01-06T01:37:33;9.80;;;7.90;;
46439;SDS011;32138;50.966;6.968;2024-01-06T01:39:04;12.93;;;9.13;;
46439;SDS011;32138;50.966;6.968;2024-01-06T01:40:34;11.82;;;9.35;;
46439;SDS011;32138;50.966;6.968;2024-01-06T01:42:05;8.65;;;7.30;;
46439;SDS011;32138;50.966;6.968;2024-01-06T01:43:36;11.98;;;8.48;;
46439;SDS011;32138;50.966;6.968;2024-01-06T01:45:07;8.43;;;7.53;;
46439;SDS011;32138;50.966;6.968;2024-01-06T01:46:38;9.18;;;7.15;;
46439;SDS011;32138;50.966;6.968;2024-01-06T01:48:09;9.70;;;7.22;;
46439;SDS011;32138;50.966;6.968;2024-01-06T01:49:40;9.00;;;7.47;;
46439;SDS011;32138;50.966;6.968;2024-01-06T01:51:11;11.15;;;8.32;;
46439;SDS011;32138;50.966;6.968;2024-01-06T01:52:42;9.27;;;7.90;;
46439;SDS011;32138;50.966;6.968;2024-01-06T01:54:13;9.88;;;7.35;;
46439;SDS011;32138;50.966;6.968;2024-01-06T01:55:44;8.48;;;7.45;;
46439;SDS011;32138;50.966;6.968;2024-01-06T01:57:15;8.88;;;7.78;;
46439;SDS011;32138;50.966;6.968;2024-01-06T01:58:46;12.18;;;8.18;;
46439;SDS011;32138;50.966;6.968;2024-01-06T02:00:18;9.90;;;8.63;;
46439;SDS011;32138;50.966;6.968;2024-01-06T02:01:49;11.77;;;8.95;;
46439;SDS011;32138;50.966;6.968;2024-01-06T02:03:19;13.18;;;8.70;;
46439;SDS011;32138;50.966;6.968;2024-01-06T02:04:52;11.30;;;8.52;;
46439;SDS011;32138;50.966;6.968;2024-01-06T02:06:23;11.35;;;8.20;;
46439;SDS011;32138;50.966;6.968;2024-01-06T02:07:54;10.63;;;9.15;;
46439;SDS011;32138;50.966;6.968;2024-01-06T02:09:25;12.60;;;9.40;;
46439;SDS011;32138;50.966;6.968;2024-01-06T02:10:59;11.52;;;9.65;;
46439;SDS011;32138;50.966;6.968;2024-01-06T02:12:30;10.52;;;8.82;;
46439;SDS011;32138;50.966;6.968;2024-01-06T02:14:00;9.95;;;8.95;;
46439;SDS011;32138;50.966;6.968;2024-01-06T02:15:31;11.50;;;8.65;;
46439;SDS011;32138;50.966;6.968;2024-01-06T02:17:02;12.75;;;9.32;;
46439;SDS011;32138;50.966;6.968;2024-01-06T02:18:33;12.85;;;9.85;;
46439;SDS011;32138;50.966;6.968;2024-01-06T02:20:04;10.38;;;9.05;;
46439;SDS011;32138;50.966;6.968;2024-01-06T02:21:36;9.65;;;8.65;;
46439;SDS011;32138;50.966;6.968;2024-01-06T02:23:12;12.40;;;9.02;;
46439;SDS011;32138;50.966;6.968;2024-01-06T02:24:43;11.60;;;9.18;;
46439;SDS011;32138;50.966;6.968;2024-01-06T02:26:13;9.75;;;8.75;;
46439;SDS011;32138;50.966;6.968;2024-01-06T02:27:45;9.88;;;8.88;;
46439;SDS011;32138;50.966;6.968;2024-01-06T02:29:15;9.57;;;8.23;;
46439;SDS011;32138;50.966;6.968;2024-01-06T02:30:46;11.65;;;9.43;;
46439;SDS011;32138;50.966;6.968;2024-01-06T02:32:17;10.40;;;8.77;;
46439;SDS011;32138;50.966;6.968;2024-01-06T02:33:48;11.32;;;9.82;;
46439;SDS011;32138;50.966;6.968;2024-01-06T02:35:20;12.05;;;9.77;;
46439;SDS011;32138;50.966;6.968;2024-01-06T02:36:51;11.65;;;10.27;;
46439;SDS011;32138;50.966;6.968;2024-01-06T02:38:21;15.32;;;9.82;;
46439;SDS011;32138;50.966;6.968;2024-01-06T02:39:52;9.75;;;8.75;;
46439;SDS011;32138;50.966;6.968;2024-01-06T02:41:23;9.25;;;8.30;;
46439;SDS011;32138;50.966;6.968;2024-01-06T02:42:54;10.40;;;9.38;;
46439;SDS011;32138;50.966;6.968;2024-01-06T02:44:25;13.38;;;9.15;;
46439;SDS011;32138;50.966;6.968;2024-01-06T02:45:55;11.85;;;9.38;;
46439;SDS011;32138;50.966;6.968;2024-01-06T02:47:26;10.73;;;8.85;;
46439;SDS011;32138;50.966;6.968;2024-01-06T02:48:57;11.13;;;9.90;;
46439;SDS011;32138;50.966;6.968;2024-01-06T02:50:28;12.35;;;10.20;;
46439;SDS011;32138;50.966;6.968;2024-01-06T02:51:58;11.80;;;10.15;;
46439;SDS011;32138;50.966;6.968;2024-01-06T02:53:29;13.68;;;9.15;;
46439;SDS011;32138;50.966;6.968;2024-01-06T02:55:00;10.25;;;8.98;;
46439;SDS011;32138;50.966;6.968;2024-01-06T02:56:31;10.65;;;9.52;;
46439;SDS011;32138;50.966;6.968;2024-01-06T02:58:01;12.15;;;10.80;;
46439;SDS011;32138;50.966;6.968;2024-01-06T02:59:32;12.57;;;11.10;;
46439;SDS011;32138;50.966;6.968;2024-01-06T03:01:04;12.30;;;10.50;;
46439;SDS011;32138;50.966;6.968;2024-01-06T03:02:35;14.18;;;10.52;;
46439;SDS011;32138;50.966;6.968;2024-01-06T03:04:07;12.27;;;10.23;;
46439;SDS011;32138;50.966;6.968;2024-01-06T03:05:38;13.75;;;10.52;;
46439;SDS011;32138;50.966;6.968;2024-01-06T03:07:09;13.63;;;11.52;;
46439;SDS011;32138;50.966;6.968;2024-01-06T03:08:40;11.25;;;9.75;;
46439;SDS011;32138;50.966;6.968;2024-01-06T03:10:11;12.68;;;11.38;;
46439;SDS011;32138;50.966;6.968;2024-01-06T03:11:41;14.90;;;11.80;;
46439;SDS011;32138;50.966;6.968;2024-01-06T03:13:12;12.82;;;10.35;;
46439;SDS011;32138;50.966;6.968;2024-01-06T03:14:43;13.93;;;11.10;;
46439;SDS011;32138;50.966;6.968;2024-01-06T03:16:14;11.90;;;10.45;;
46439;SDS011;32138;50.966;6.968;2024-01-06T03:17:44;15.57;;;12.27;;
46439;SDS011;32138;50.966;6.968;2024-01-06T03:19:15;14.45;;;12.27;;
46439;SDS011;32138;50.966;6.968;2024-01-06T03:20:46;11.65;;;10.20;;
46439;SDS011;32138;50.966;6.968;2024-01-06T03:22:16;12.25;;;10.93;;
46439;SDS011;32138;50.966;6.968;2024-01-06T03:23:48;12.88;;;10.35;;
46439;SDS011;32138;50.966;6.968;2024-01-06T03:25:18;13.90;;;11.32;;
46439;SDS011;32138;50.966;6.968;2024-01-06T03:26:49;12.40;;;10.80;;
46439;SDS011;32138;50.966;6.968;2024-01-06T03:28:20;12.23;;;10.25;;
46439;SDS011;32138;50.966;6.968;2024-01-06T03:29:51;12.40;;;10.60;;
46439;SDS011;32138;50.966;6.968;2024-01-06T03:31:22;14.50;;;12.20;;
46439;SDS011;32138;50.966;6.968;2024-01-06T03:32:52;14.40;;;11.57;;
46439;SDS011;32138;50.966;6.968;2024-01-06T03:34:23;15.20;;;12.30;;
46439;SDS011;32138;50.966;6.968;2024-01-06T03:35:54;14.98;;;11.40;;
46439;SDS011;32138;50.966;6.968;2024-01-06T03:37:25;12.00;;;9.77;;
46439;SDS011;32138;50.966;6.968;2024-01-06T03:38:56;14.10;;;12.52;;
46439;SDS011;32138;50.966;6.968;2024-01-06T03:40:27;14.25;;;12.75;;
46439;SDS011;32138;50.966;6.968;2024-01-06T03:41:57;17.13;;;12.63;;
46439;SDS011;32138;50.966;6.968;2024-01-06T03:43:30;13.02;;;10.73;;
46439;SDS011;32138;50.966;6.968;2024-01-06T03:45:00;14.82;;;11.63;;
46439;SDS011;32138;50.966;6.968;2024-01-06T03:46:32;17.42;;;12.30;;
46439;SDS011;32138;50.966;6.968;2024-01-06T03:48:04;14.65;;;12.10;;
46439;SDS011;32138;50.966;6.968;2024-01-06T03:49:36;13.07;;;11.50;;
46439;SDS011;32138;50.966;6.968;2024-01-06T03:51:07;12.52;;;9.98;;
46439;SDS011;32138;50.966;6.968;2024-01-06T03:52:37;14.30;;;12.55;;
46439;SDS011;32138;50.966;6.968;2024-01-06T03:54:08;16.33;;;12.70;;
46439;SDS011;32138;50.966;6.968;2024-01-06T03:55:39;15.75;;;12.48;;
46439;SDS011;32138;50.966;6.968;2024-01-06T03:57:10;16.48;;;13.88;;
46439;SDS011;32138;50.966;6.968;2024-01-06T03:58:41;18.25;;;13.88;;
46439;SDS011;32138;50.966;6.968;2024-01-06T04:00:11;19.45;;;15.43;;
46439;SDS011;32138;50.966;6.968;2024-01-06T04:01:42;20.33;;;15.77;;
46439;SDS011;32138;50.966;6.968;2024-01-06T04:03:13;18.83;;;14.93;;
46439;SDS011;32138;50.966;6.968;2024-01-06T04:04:44;17.63;;;13.65;;
46439;SDS011;32138;50.966;6.968;2024-01-06T04:06:15;23.65;;;17.50;;
46439;SDS011;32138;50.966;6.968;2024-01-06T04:07:45;22.77;;;16.00;;
46439;SDS011;32138;50.966;6.968;2024-01-06T04:09:16;21.75;;;16.17;;
46439;SDS011;32138;50.966;6.968;2024-01-06T04:10:47;19.30;;;16.65;;
46439;SDS011;32138;50.966;6.968;2024-01-06T04:12:18;19.88;;;16.25;;
46439;SDS011;32138;50.966;6.968;2024-01-06T04:13:48;19.70;;;15.82;;
46439;SDS011;32138;50.966;6.968;2024-01-06T04:15:19;19.38;;;15.95;;
46439;SDS011;32138;50.966;6.968;2024-01-06T04:16:50;22.75;;;18.08;;
46439;SDS011;32138;50.966;6.968;2024-01-06T04:18:22;21.23;;;17.50;;
46439;SDS011;32138;50.966;6.968;2024-01-06T04:19:53;22.85;;;18.17;;
46439;SDS011;32138;50.966;6.968;2024-01-06T04:21:24;23.70;;;17.90;;
46439;SDS011;32138;50.966;6.968;2024-01-06T04:22:55;23.60;;;19.35;;
46439;SDS011;32138;50.966;6.968;2024-01-06T04:24:25;22.05;;;17.77;;
46439;SDS011;32138;50.966;6.968;2024-01-06T04:25:56;24.90;;;19.25;;
46439;SDS011;32138;50.966;6.968;2024-01-06T04:27:27;26.98;;;19.95;;
46439;SDS011;32138;50.966;6.968;2024-01-06T04:28:58;29.25;;;20.05;;
46439;SDS011;32138;50.966;6.968;2024-01-06T04:30:29;25.42;;;20.67;;
46439;SDS011;32138;50.966;6.968;2024-01-06T04:31:59;29.88;;;21.95;;
46439;SDS011;32138;50.966;6.968;2024-01-06T04:33:30;29.65;;;21.25;;
46439;SDS011;32138;50.966;6.968;2024-01-06T04:35:01;26.63;;;19.30;;
46439;SDS011;32138;50.966;6.968;2024-01-06T04:36:32;33.75;;;21.85;;
46439;SDS011;32138;50.966;6.968;2024-01-06T04:38:03;28.23;;;21.00;;
46439;SDS011;32138;50.966;6.968;2024-01-06T04:39:34;27.05;;;21.33;;
46439;SDS011;32138;50.966;6.968;2024-01-06T04:41:05;29.75;;;22.33;;
46439;SDS011;32138;50.966;6.968;2024-01-06T04:42:36;27.13;;;21.98;;
46439;SDS011;32138;50.966;6.968;2024-01-06T04:44:06;29.15;;;21.55;;
46439;SDS011;32138;50.966;6.968;2024-01-06T04:45:37;27.92;;;23.00;;
46439;SDS011;32138;50.966;6.968;2024-01-06T04:47:08;27.27;;;22.77;;
46439;SDS011;32138;50.966;6.968;2024-01-06T04:48:40;28.67;;;22.85;;
46439;SDS011;32138;50.966;6.968;2024-01-06T04:50:11;28.58;;;22.58;;
46439;SDS011;32138;50.966;6.968;2024-01-06T04:51:42;30.25;;;23.08;;
46439;SDS011;32138;50.966;6.968;2024-01-06T04:53:12;30.52;;;23.30;;
46439;SDS011;32138;50.966;6.968;2024-01-06T04:54:43;30.95;;;23.30;;
46439;SDS011;32138;50.966;6.968;2024-01-06T04:56:14;31.52;;;23.48;;
46439;SDS011;32138;50.966;6.968;2024-01-06T04:57:45;29.20;;;24.00;;
46439;SDS011;32138;50.966;6.968;2024-01-06T04:59:15;32.08;;;24.10;;
46439;SDS011;32138;50.966;6.968;2024-01-06T05:00:46;34.55;;;24.45;;
46439;SDS011;32138;50.966;6.968;2024-01-06T05:02:17;26.40;;;21.30;;
46439;SDS011;32138;50.966;6.968;2024-01-06T05:03:48;32.75;;;24.50;;
46439;SDS011;32138;50.966;6.968;2024-01-06T05:05:18;31.02;;;22.70;;
46439;SDS011;32138;50.966;6.968;2024-01-06T05:06:50;30.92;;;24.05;;
46439;SDS011;32138;50.966;6.968;2024-01-06T05:08:21;31.25;;;22.95;;
46439;SDS011;32138;50.966;6.968;2024-01-06T05:09:52;27.70;;;21.73;;
46439;SDS011;32138;50.966;6.968;2024-01-06T05:11:23;23.75;;;19.38;;
46439;SDS011;32138;50.966;6.968;2024-01-06T05:12:54;27.67;;;19.73;;
46439;SDS011;32138;50.966;6.968;2024-01-06T05:14:24;28.33;;;20.23;;
46439;SDS011;32138;50.966;6.968;2024-01-06T05:15:55;24.52;;;18.85;;
46439;SDS011;32138;50.966;6.968;2024-01-06T05:17:26;27.30;;;20.25;;
46439;SDS011;32138;50.966;6.968;2024-01-06T05:18:56;28.95;;;20.15;;
46439;SDS011;32138;50.966;6.968;2024-01-06T05:20:27;27.48;;;20.25;;
46439;SDS011;32138;50.966;6.968;2024-01-06T05:21:58;26.17;;;19.67;;
46439;SDS011;32138;50.966;6.968;2024-01-06T05:23:29;23.70;;;19.15;;
46439;SDS011;32138;50.966;6.968;2024-01-06T05:24:59;33.63;;;21.30;;
46439;SDS011;32138;50.966;6.968;2024-01-06T05:26:30;25.35;;;19.08;;
46439;SDS011;32138;50.966;6.968;2024-01-06T05:28:01;24.77;;;18.58;;
46439;SDS011;32138;50.966;6.968;2024-01-06T05:29:31;23.33;;;18.23;;
46439;SDS011;32138;50.966;6.968;2024-01-06T05:31:02;24.30;;;17.88;;
46439;SDS011;32138;50.966;6.968;2024-01-06T05:32:33;23.27;;;18.30;;
46439;SDS011;32138;50.966;6.968;2024-01-06T05:34:04;25.10;;;18.17;;
46439;SDS011;32138;50.966;6.968;2024-01-06T05:35:34;24.10;;;17.63;;
46439;SDS011;32138;50.966;6.968;2024-01-06T05:37:05;24.45;;;17.98;;
46439;SDS011;32138;50.966;6.968;2024-01-06T05:38:36;22.92;;;17.42;;
46439;SDS011;32138;50.966;6.968;2024-01-06T05:40:07;24.80;;;17.40;;
46439;SDS011;32138;50.966;6.968;2024-01-06T05:41:39;24.55;;;18.17;;
46439;SDS011;32138;50.966;6.968;2024-01-06T05:43:10;21.13;;;17.38;;
46439;SDS011;32138;50.966;6.968;2024-01-06T05:44:41;21.10;;;16.63;;
46439;SDS011;32138;50.966;6.968;2024-01-06T05:46:19;23.05;;;15.90;;
46439;SDS011;32138;50.966;6.968;2024-01-06T05:47:51;22.43;;;15.67;;
46439;SDS011;32138;50.966;6.968;2024-01-06T05:49:22;20.77;;;15.18;;
46439;SDS011;32138;50.966;6.968;2024-01-06T05:50:54;19.70;;;15.18;;
46439;SDS011;32138;50.966;6.968;2024-01-06T05:52:25;21.33;;;15.65;;
46439;SDS011;32138;50.966;6.968;2024-01-06T05:53:56;22.02;;;15.73;;
46439;SDS011;32138;50.966;6.968;2024-01-06T05:55:26;19.20;;;13.65;;
46439;SDS011;32138;50.966;6.968;2024-01-06T05:56:57;21.67;;;15.90;;
46439;SDS011;32138;50.966;6.968;2024-01-06T05:58:29;19.77;;;13.65;;
46439;SDS011;32138;50.966;6.968;2024-01-06T06:00:00;21.58;;;14.63;;
46439;SDS011;32138;50.966;6.968;2024-01-06T06:01:31;18.73;;;12.95;;
46439;SDS011;32138;50.966;6.968;2024-01-06T06:03:01;18.35;;;12.32;;
46439;SDS011;32138;50.966;6.968;2024-01-06T06:04:32;18.33;;;12.65;;
46439;SDS011;32138;50.966;6.968;2024-01-06T06:06:03;17.45;;;13.40;;
46439;SDS011;32138;50.966;6.968;2024-01-06T06:07:34;21.77;;;14.93;;
46439;SDS011;32138;50.966;6.968;2024-01-06T06:09:08;17.77;;;12.88;;
46439;SDS011;32138;50.966;6.968;2024-01-06T06:10:40;18.08;;;13.15;;
46439;SDS011;32138;50.966;6.968;2024-01-06T06:12:11;17.98;;;13.10;;
46439;SDS011;32138;50.966;6.968;2024-01-06T06:13:42;19.00;;;12.45;;
46439;SDS011;32138;50.966;6.968;2024-01-06T06:15:13;16.73;;;11.13;;
46439;SDS011;32138;50.966;6.968;2024-01-06T06:16:44;14.18;;;9.70;;
46439;SDS011;32138;50.966;6.968;2024-01-06T06:18:15;14.98;;;10.32;;
46439;SDS011;32138;50.966;6.968;2024-01-06T06:19:46;12.57;;;8.95;;
46439;SDS011;32138;50.966;6.968;2024-01-06T06:21:16;13.13;;;9.25;;
46439;SDS011;32138;50.966;6.968;2024-01-06T06:22:47;11.25;;;8.77;;
46439;SDS011;32138;50.966;6.968;2024-01-06T06:24:18;11.93;;;8.02;;
46439;SDS011;32138;50.966;6.968;2024-01-06T06:25:49;11.55;;;8.65;;
46439;SDS011;32138;50.966;6.968;2024-01-06T06:27:19;11.38;;;8.63;;
46439;SDS011;32138;50.966;6.968;2024-01-06T06:28:50;12.02;;;8.75;;
46439;SDS011;32138;50.966;6.968;2024-01-06T06:30:22;12.48;;;9.05;;
46439;SDS011;32138;50.966;6.968;2024-01-06T06:31:52;11.77;;;8.35;;
46439;SDS011;32138;50.966;6.968;2024-01-06T06:33:23;12.10;;;9.23;;
46439;SDS011;32138;50.966;6.968;2024-01-06T06:34:54;11.38;;;8.75;;
46439;SDS011;32138;50.966;6.968;2024-01-06T06:36:25;12.30;;;8.60;;
46439;SDS011;32138;50.966;6.968;2024-01-06T06:37:55;14.43;;;8.70;;
46439;SDS011;32138;50.966;6.968;2024-01-06T06:39:26;16.65;;;8.60;;
46439;SDS011;32138;50.966;6.968;2024-01-06T06:40:57;11.80;;;9.23;;
46439;SDS011;32138;50.966;6.968;2024-01-06T06:42:28;16.25;;;10.48;;
46439;SDS011;32138;50.966;6.968;2024-01-06T06:43:58;14.82;;;10.38;;
46439;SDS011;32138;50.966;6.968;2024-01-06T06:45:30;14.52;;;10.10;;
46439;SDS011;32138;50.966;6.968;2024-01-06T06:47:00;15.57;;;10.70;;
46439;SDS011;32138;50.966;6.968;2024-01-06T06:48:31;13.35;;;9.95;;
46439;SDS011;32138;50.966;6.968;2024-01-06T06:50:02;14.02;;;10.00;;
46439;SDS011;32138;50.966;6.968;2024-01-06T06:51:33;16.08;;;11.30;;
46439;SDS011;32138;50.966;6.968;2024-01-06T06:53:03;20.75;;;11.75;;
46439;SDS011;32138;50.966;6.968;2024-01-06T06:54:34;15.60;;;11.43;;
46439;SDS011;32138;50.966;6.968;2024-01-06T06:56:05;13.88;;;10.75;;
46439;SDS011;32138;50.966;6.968;2024-01-06T06:57:36;15.32;;;11.40;;
46439;SDS011;32138;50.966;6.968;2024-01-06T06:59:08;17.67;;;12.68;;
46439;SDS011;32138;50.966;6.968;2024-01-06T07:00:39;14.05;;;10.02;;
46439;SDS011;32138;50.966;6.968;2024-01-06T07:02:10;15.95;;;10.65;;
46439;SDS011;32138;50.966;6.968;2024-01-06T07:03:40;15.77;;;10.77;;
46439;SDS011;32138;50.966;6.968;2024-01-06T07:05:11;14.32;;;9.80;;
46439;SDS011;32138;50.966;6.968;2024-01-06T07:06:42;15.43;;;10.57;;
46439;SDS011;32138;50.966;6.968;2024-01-06T07:08:13;14.07;;;10.73;;
46439;SDS011;32138;50.966;6.968;2024-01-06T07:09:45;16.00;;;11.63;;
46439;SDS011;32138;50.966;6.968;2024-01-06T07:11:15;18.80;;;11.63;;
46439;SDS011;32138;50.966;6.968;2024-01-06T07:12:48;18.98;;;12.50;;
46439;SDS011;32138;50.966;6.968;2024-01-06T07:14:19;15.02;;;11.05;;
46439;SDS011;32138;50.966;6.968;2024-01-06T07:15:50;15.02;;;10.73;;
46439;SDS011;32138;50.966;6.968;2024-01-06T07:17:20;15.93;;;11.15;;
46439;SDS011;32138;50.966;6.968;2024-01-06T07:18:51;18.17;;;11.70;;
46439;SDS011;32138;50.966;6.968;2024-01-06T07:20:22;16.50;;;10.27;;
46439;SDS011;32138;50.966;6.968;2024-01-06T07:21:53;16.13;;;11.07;;
46439;SDS011;32138;50.966;6.968;2024-01-06T07:23:23;18.55;;;12.10;;
46439;SDS011;32138;50.966;6.968;2024-01-06T07:24:54;17.45;;;11.63;;
46439;SDS011;32138;50.966;6.968;2024-01-06T07:26:25;16.73;;;11.63;;
46439;SDS011;32138;50.966;6.968;2024-01-06T07:27:55;16.48;;;11.27;;
46439;SDS011;32138;50.966;6.968;2024-01-06T07:29:26;17.08;;;12.48;;
46439;SDS011;32138;50.966;6.968;2024-01-06T07:30:57;17.98;;;12.90;;
46439;SDS011;32138;50.966;6.968;2024-01-06T07:32:27;17.63;;;12.35;;
46439;SDS011;32138;50.966;6.968;2024-01-06T07:33:58;17.40;;;12.02;;
46439;SDS011;32138;50.966;6.968;2024-01-06T07:35:29;17.23;;;12.30;;
46439;SDS011;32138;50.966;6.968;2024-01-06T07:37:00;24.98;;;13.32;;
46439;SDS011;32138;50.966;6.968;2024-01-06T07:38:31;15.75;;;11.93;;
46439;SDS011;32138;50.966;6.968;2024-01-06T07:40:01;17.80;;;12.32;;
46439;SDS011;32138;50.966;6.968;2024-01-06T07:41:32;17.60;;;11.95;;
46439;SDS011;32138;50.966;6.968;2024-01-06T07:43:06;16.73;;;11.35;;
46439;SDS011;32138;50.966;6.968;2024-01-06T07:44:37;18.63;;;12.73;;
46439;SDS011;32138;50.966;6.968;2024-01-06T07:46:08;19.23;;;14.02;;
46439;SDS011;32138;50.966;6.968;2024-01-06T07:47:39;19.98;;;13.50;;
46439;SDS011;32138;50.966;6.968;2024-01-06T07:49:10;16.75;;;11.23;;
46439;SDS011;32138;50.966;6.968;2024-01-06T07:50:40;17.67;;;12.45;;
46439;SDS011;32138;50.966;6.968;2024-01-06T07:52:11;18.45;;;12.80;;
46439;SDS011;32138;50.966;6.968;2024-01-06T07:53:43;17.60;;;13.05;;
46439;SDS011;32138;50.966;6.968;2024-01-06T07:55:14;18.67;;;12.48;;
46439;SDS011;32138;50.966;6.968;2024-01-06T07:56:45;17.35;;;12.27;;
46439;SDS011;32138;50.966;6.968;2024-01-06T07:58:16;17.88;;;12.23;;
46439;SDS011;32138;50.966;6.968;2024-01-06T07:59:46;20.20;;;12.18;;
46439;SDS011;32138;50.966;6.968;2024-01-06T08:01:17;17.98;;;12.70;;
46439;SDS011;32138;50.966;6.968;2024-01-06T08:02:48;17.00;;;12.10;;
46439;SDS011;32138;50.966;6.968;2024-01-06T08:04:19;18.88;;;12.63;;
46439;SDS011;32138;50.966;6.968;2024-01-06T08:05:50;17.52;;;12.60;;
46439;SDS011;32138;50.966;6.968;2024-01-06T08:07:21;16.23;;;12.07;;
46439;SDS011;32138;50.966;6.968;2024-01-06T08:08:52;18.55;;;13.70;;
46439;SDS011;32138;50.966;6.968;2024-01-06T08:10:24;17.02;;;12.45;;
46439;SDS011;32138;50.966;6.968;2024-01-06T08:11:58;15.50;;;11.07;;
46439;SDS011;32138;50.966;6.968;2024-01-06T08:13:29;16.08;;;12.32;;
46439;SDS011;32138;50.966;6.968;2024-01-06T08:15:00;17.00;;;11.38;;
46439;SDS011;32138;50.966;6.968;2024-01-06T08:16:30;17.33;;;12.27;;
46439;SDS011;32138;50.966;6.968;2024-01-06T08:18:02;18.25;;;12.88;;
46439;SDS011;32138;50.966;6.968;2024-01-06T08:19:33;18.10;;;12.32;;
46439;SDS011;32138;50.966;6.968;2024-01-06T08:21:05;16.98;;;11.85;;
46439;SDS011;32138;50.966;6.968;2024-01-06T08:22:36;19.20;;;12.55;;
46439;SDS011;32138;50.966;6.968;2024-01-06T08:24:07;19.90;;;12.80;;
46439;SDS011;32138;50.966;6.968;2024-01-06T08:25:38;18.02;;;12.07;;
46439;SDS011;32138;50.966;6.968;2024-01-06T08:27:08;18.77;;;12.85;;
46439;SDS011;32138;50.966;6.968;2024-01-06T08:28:39;16.83;;;11.73;;
46439;SDS011;32138;50.966;6.968;2024-01-06T08:30:10;18.40;;;11.57;;
46439;SDS011;32138;50.966;6.968;2024-01-06T08:31:42;17.65;;;11.60;;
46439;SDS011;32138;50.966;6.968;2024-01-06T08:33:12;16.00;;;11.70;;
46439;SDS011;32138;50.966;6.968;2024-01-06T08:34:43;16.20;;;12.13;;
46439;SDS011;32138;50.966;6.968;2024-01-06T08:36:14;16.73;;;10.90;;
46439;SDS011;32138;50.966;6.968;2024-01-06T08:37:45;15.75;;;11.23;;
46439;SDS011;32138;50.966;6.968;2024-01-06T08:39:16;16.48;;;11.40;;
46439;SDS011;32138;50.966;6.968;2024-01-06T08:40:47;17.23;;;11.77;;
46439;SDS011;32138;50.966;6.968;2024-01-06T08:42:20;18.05;;;11.93;;
46439;SDS011;32138;50.966;6.968;2024-01-06T08:43:51;17.75;;;13.10;;
46439;SDS011;32138;50.966;6.968;2024-01-06T08:45:22;14.02;;;10.38;;
46439;SDS011;32138;50.966;6.968;2024-01-06T08:46:52;16.83;;;11.55;;
46439;SDS011;32138;50.966;6.968;2024-01-06T08:48:23;15.50;;;11.45;;
46439;SDS011;32138;50.966;6.968;2024-01-06T08:49:54;16.27;;;11.57;;
46439;SDS011;32138;50.966;6.968;2024-01-06T08:51:24;21.15;;;12.02;;
46439;SDS011;32138;50.966;6.968;2024-01-06T08:52:56;16.00;;;11.68;;
46439;SDS011;32138;50.966;6.968;2024-01-06T08:54:27;16.92;;;11.20;;
46439;SDS011;32138;50.966;6.968;2024-01-06T08:55:58;17.25;;;12.20;;